Weather observations for the past three days for
Charlevoix, Charlevoix Municipal Airport
Imperial (Metric)
Date Time (edt) Wind (mph) Vis. (mi.) Weather Sky Cond. Temperature (ºF) Relative Humidity Wind Chill (°F) Heat Index (°F) Pressure Precipitation (in)
Air Dwpt 6 hour altimeter (in) sea level (mb) 1 hr 3 hr 6 hr
Max. Min.
04 12:15 S 23 G 31 10.00 Fair and Breezy CLR 68 37.4 33% 29.36 0.0
04 11:55 SW 15 G 32 10.00 Fair CLR 66.2 37.4 35% 29.37 0.0
04 11:35 S 20 G 30 10.00 Fair CLR 66.2 37.4 35% 29.39 0.0
04 11:15 SW 17 G 29 10.00 Fair CLR 64.4 39.2 40% 29.4 0.0
04 10:55 S 16 G 24 10.00 Fair CLR 62.6 39.2 42% 29.41 0.0
04 10:35 SW 15 G 23 10.00 Fair CLR 60.8 39.2 45% 29.42 0.0
04 10:15 S 14 G 23 10.00 Fair CLR 59 41 51% 29.42 0.0
04 09:55 S 10 G 21 10.00 Fair CLR 59 41 51% 29.43 0.0
04 09:35 S 14 G 21 10.00 Fair CLR 57.2 41 55% 29.44 0.0
04 09:15 S 9 10.00 Fair CLR 55.4 42.8 63% 29.45 0.0
04 08:55 S 10 10.00 Fair CLR 53.6 42.8 67% 29.46 0.0
04 08:35 S 12 10.00 Fair CLR 51.8 42.8 72% 29.46 0.0
04 08:15 S 9 10.00 Fair CLR 48.2 41 76% 45 29.47 0.0
04 07:55 S 9 10.00 Fair CLR 46.4 41 46.8 37.2 82% 42 29.48 0.0
04 07:35 S 9 10.00 Fair CLR 46.4 41 82% 42 29.48 0.0
04 07:15 SE 8 10.00 Fair CLR 46.4 41 82% 43 29.49 0.0
04 06:55 S 8 10.00 Fair CLR 44.6 41 87% 41 29.49 0.0
04 06:35 S 7 10.00 Fair CLR 44.6 41 87% 41 29.5 0.0
04 06:15 S 6 10.00 Fair CLR 44.6 41 87% 42 29.5 0.0
04 05:55 SE 8 10.00 Fair CLR 44.6 41 87% 41 29.51 0.0
04 05:35 S 7 10.00 Fair CLR 42.8 41 93% 39 29.51 0.0
04 05:15 SE 8 10.00 Fair CLR 42.8 41 93% 39 29.52 0.0
04 04:55 SE 6 10.00 Fair CLR 41 41 100% 38 29.53 0.0
04 04:35 SE 6 10.00 Fair CLR 41 41 100% 38 29.53 0.0
04 04:15 SE 3 10.00 Fair CLR 39.2 39.2 100% 29.54 0.0
04 03:55 SE 6 9.00 Fair CLR 37.4 37.4 100% 33 29.55 0.0
04 03:35 SE 5 9.00 Fair CLR 39.2 39.2 100% 36 29.56 0.0
04 03:15 SE 6 10.00 Fair CLR 39.2 39.2 100% 36 29.57 0.0
04 02:55 SE 5 9.00 Fair CLR 39.2 39.2 100% 36 29.57 0.0
04 02:35 SE 2 9.00 Fair CLR 39.2 37.4 93% 29.58 0.0
04 02:15 S 5 9.00 Fair CLR 37.4 37.4 100% 34 29.59 0.0
04 01:55 S 2 10.00 Fair CLR 39.2 39.2 52 38.1 100% 29.6 0.0
04 01:35 W 1 8.00 Fair CLR 39.2 39.2 100% 29.6 0.0
04 01:15 Calm 10.00 Fair CLR 41 39.2 93% 29.6 0.0
04 00:55 SW 3 10.00 Fair CLR 39.2 39.2 100% 29.6 0.0
04 00:35 S 6 7.00 Fair CLR 39.2 39.2 100% 36 29.61 0.0
04 00:15 S 2 10.00 Fair CLR 41 41 100% 29.61 0.0
03 23:55 SW 3 10.00 Fair CLR 42.8 41 93% 29.62 0.0
03 23:35 NW 2 10.00 Fair CLR 44.6 39.2 81% 29.62 0.0
03 23:15 NW 5 10.00 Fair CLR 44.6 41 87% 43 29.63 0.0
03 22:55 W 8 10.00 Fair CLR 44.6 41 87% 41 29.63 0.0
03 22:35 NW 3 10.00 Partly Cloudy SCT065 48.2 42.8 82% 29.62 0.0
03 22:15 Vrbl 2 10.00 Mostly Cloudy BKN065 48.2 44.6 87% 29.61 0.0
03 21:55 E 5 10.00 Overcast BKN070 OVC090 50 44.6 82% 49 29.6 0.0
03 21:35 Vrbl 2 10.00 Overcast OVC075 51.8 42.8 72% 29.6 0.0
03 21:15 SW 10 G 18 10.00 Overcast FEW070 BKN080 OVC120 51.8 44.6 77% 29.58 0.0
03 20:55 S 8 10.00 Mostly Cloudy FEW080 BKN110 50 44.6 82% 47 29.58 0.0
03 20:35 S 9 10.00 Partly Cloudy SCT110 50 44.6 82% 47 29.58 0.0
03 20:15 S 8 10.00 Fair CLR 48.2 44.6 87% 45 29.59 0.0
03 19:55 S 9 10.00 A Few Clouds FEW035 FEW049 FEW120 48.2 44.6 60.8 45.7 87% 45 29.6 0.0 0.13
03 19:35 S 14 G 21 3.00 Light Rain Fog/Mist FEW035 BKN048 BKN110 46.4 44.6 93% 41 29.58 0.0
03 19:15 NW 21 G 32 7.00 Rain and Breezy SCT046 OVC055 48.2 42.8 82% 42 29.65 0.0
03 18:55 SW 9 10.00 Light Rain SCT055 BKN065 BKN100 55.4 44.6 67% 29.6 0.0 0.01
03 18:35 SW 14 G 22 10.00 Overcast OVC100 57.2 41 55% 29.59 0.0
03 18:15 S 18 G 26 10.00 Overcast OVC090 57.2 41 55% 29.58 0.0
03 17:55 SW 14 G 25 10.00 Partly Cloudy SCT085 SCT110 59 42.8 55% 29.58 0.0
03 17:35 SW 16 G 28 10.00 A Few Clouds FEW080 60.8 42.8 52% 29.58 0.0
03 17:15 S 20 G 24 10.00 Partly Cloudy FEW060 SCT070 SCT080 60.8 42.8 52% 29.59 0.0
03 16:55 S 13 G 22 10.00 Overcast FEW060 OVC070 57.2 42.8 59% 29.6 0.0
03 16:35 S 12 G 23 10.00 Mostly Cloudy BKN070 BKN090 BKN120 59 42.8 55% 29.61 0.0
03 16:15 SW 15 G 29 10.00 Partly Cloudy SCT100 SCT120 59 42.8 55% 29.63 0.0
03 15:55 S 14 G 22 10.00 A Few Clouds FEW100 55.4 41 59% 29.64 0.0
03 15:35 S 14 G 24 10.00 Fair CLR 59 41 51% 29.65 0.0
03 15:15 S 15 G 24 10.00 Fair CLR 59 39.2 48% 29.66 0.0
03 14:55 SW 16 G 25 10.00 Fair CLR 59 39.2 48% 29.66 0.0
03 14:35 SW 16 G 22 10.00 A Few Clouds FEW085 57.2 41 55% 29.67 0.0
03 14:15 SW 17 10.00 Mostly Cloudy BKN085 57.2 41 55% 29.67 0.0
03 13:55 SW 13 G 20 10.00 Mostly Cloudy SCT055 BKN095 53.6 41 53.6 40.8 63% 29.68 0.0
03 13:35 SW 14 10.00 Overcast OVC055 51.8 41 67% 29.69 0.0
03 13:15 SW 13 10.00 Overcast OVC065 50 41 71% 46 29.69 0.0
03 12:55 S 10 10.00 Light Rain FEW050 OVC065 48.2 42.8 82% 44 29.7 0.0
03 12:35 SW 12 G 16 10.00 Light Rain OVC050 48.2 42.8 82% 44 29.71 0.0
03 12:15 S 13 10.00 Light Rain OVC050 48.2 42.8 82% 43 29.71 0.0
03 11:55 SW 7 10.00 Light Rain FEW042 OVC050 48.2 42.8 82% 46 29.71 0.0
03 11:35 SW 10 10.00 Light Rain BKN044 OVC050 46.4 41 82% 42 29.72 0.0
03 11:15 SW 12 G 18 10.00 Overcast SCT044 OVC055 46.4 39.2 76% 42 29.72 0.0
03 10:55 SW 12 10.00 Overcast FEW046 OVC060 46.4 39.2 76% 42 29.72 0.0
03 10:35 SW 12 G 21 10.00 Overcast OVC050 46.4 39.2 76% 42 29.72 0.0
03 10:15 SW 13 G 18 10.00 Overcast BKN055 OVC070 46.4 37.4 71% 41 29.72 0.0
03 09:55 SW 15 G 21 10.00 Overcast SCT060 OVC075 48.2 35.6 62% 43 29.72 0.0
03 09:35 SW 12 G 16 10.00 Light Rain OVC050 46.4 35.6 66% 42 29.73 0.0
03 09:15 SW 9 10.00 Overcast BKN050 OVC070 46.4 35.6 66% 42 29.73 0.0
03 08:55 S 10 10.00 Overcast SCT060 OVC070 44.6 35.6 71% 40 29.73 0.0
03 08:35 S 7 10.00 Light Drizzle BKN060 OVC070 42.8 37.4 81% 39 29.75 0.0
03 08:15 Vrbl 3 10.00 Light Rain BKN050 OVC065 41 37.4 87% 29.75 0.0
03 07:55 SE 5 10.00 Light Drizzle BKN050 OVC065 42.8 33.8 42.3 32.2 71% 41 29.75 0.0
03 07:35 S 9 10.00 Light Rain SCT050 BKN065 41 33.8 76% 36 29.76 0.0
03 07:15 SW 8 10.00 Light Rain BKN060 OVC085 41 30.2 66% 36 29.76 0.0
03 06:55 SE 5 10.00 Overcast OVC095 37.4 26.6 65% 34 29.76 0.0
03 06:35 SE 5 10.00 Mostly Cloudy BKN095 BKN120 37.4 26.6 65% 34 29.77 0.0
03 06:15 SE 6 10.00 Mostly Cloudy BKN095 BKN120 35.6 24.8 65% 31 29.77 0.0
03 05:55 SE 6 10.00 Overcast OVC110 35.6 24.8 65% 31 29.77 0.0
03 05:35 SE 6 10.00 Partly Cloudy SCT110 33.8 24.8 70% 29 29.78 0.0
03 05:15 SE 5 10.00 Fair CLR 33.8 26.6 75% 30 29.79 0.0
03 04:55 E 5 10.00 Fair CLR 35.6 23 60% 32 29.8 0.0
03 04:35 SE 6 10.00 A Few Clouds FEW100 35.6 23 60% 31 29.8 0.0
03 04:15 SE 5 10.00 Mostly Cloudy BKN100 35.6 24.8 65% 32 29.81 0.0
03 03:55 SE 5 10.00 Overcast OVC100 35.6 23 60% 32 29.82 0.0
03 03:35 SE 6 10.00 Mostly Cloudy SCT090 BKN110 33.8 23 65% 29 29.83 0.0
03 03:15 E 5 10.00 Partly Cloudy SCT090 33.8 21.2 60% 30 29.83 0.0
03 02:55 SE 5 10.00 Fair CLR 33.8 24.8 70% 30 29.84 0.0
03 02:35 SE 5 10.00 Fair CLR 33.8 24.8 70% 30 29.85 0.0
03 02:15 SE 5 10.00 Fair CLR 33.8 24.8 70% 30 29.86 0.0
03 01:55 SE 6 10.00 Partly Cloudy SCT100 33.8 24.8 46 32.7 70% 29 29.87 0.0
03 01:35 SE 5 10.00 Mostly Cloudy BKN100 33.8 26.6 75% 30 29.88 0.0
03 01:15 SE 5 10.00 Fair CLR 33.8 26.6 75% 30 29.89 0.0
03 00:55 SE 3 10.00 Fair CLR 35.6 26.6 70% 29.89 0.0
03 00:35 Vrbl 2 10.00 Fair CLR 35.6 26.6 70% 29.9 0.0
03 00:15 SW 5 10.00 Fair CLR 35.6 24.8 65% 32 29.91 0.0
02 23:55 NW 2 10.00 Fair CLR 35.6 24.8 65% 29.91 0.0
02 23:35 SW 3 10.00 Fair CLR 35.6 24.8 65% 29.91 0.0
02 23:15 SE 1 10.00 Fair CLR 35.6 23 60% 29.92 0.0
02 22:55 SE 1 10.00 Fair CLR 35.6 26.6 70% 29.92 0.0
02 22:35 E 2 10.00 Fair CLR 37.4 23 56% 29.93 0.0
02 22:15 S 3 10.00 Fair CLR 39.2 24.8 56% 29.93 0.0
02 21:55 S 6 10.00 Fair CLR 41 19.4 42% 38 29.93 0.0
02 21:35 S 3 10.00 Fair CLR 41 21.2 45% 29.93 0.0
02 21:15 S 3 10.00 Fair CLR 42.8 19.4 39% 29.93 0.0
02 20:55 SW 3 10.00 Fair CLR 42.8 19.4 39% 29.93 0.0
02 20:35 SW 5 10.00 Fair CLR 42.8 19.4 39% 41 29.93 0.0
02 20:15 SW 6 10.00 Fair CLR 44.6 17.6 34% 42 29.93 0.0
02 19:55 SW 8 10.00 Fair CLR 46.4 17.6 48.9 43.7 32% 43 29.93 0.0
02 19:35 W 9 10.00 Fair CLR 46.4 17.6 32% 42 29.94 0.0
02 19:15 W 7 10.00 Fair CLR 48.2 17.6 29% 46 29.94 0.0
02 18:55 W 10 10.00 Fair CLR 48.2 19.4 32% 44 29.95 0.0
02 18:35 Vrbl 2 10.00 Fair CLR 48.2 15.8 27% 29.95 0.0
02 18:15 Vrbl 6 10.00 Fair CLR 48.2 15.8 27% 46 29.95 0.0
02 17:55 W 6 10.00 Fair CLR 48.2 17.6 29% 46 29.96 0.0
02 17:35 W 8 10.00 Fair CLR 48.2 17.6 29% 45 29.97 0.0
02 17:15 W 10 10.00 Fair CLR 48.2 19.4 32% 44 29.97 0.0
02 16:55 W 13 10.00 Fair CLR 46.4 19.4 34% 41 29.98 0.0
02 16:35 W 14 10.00 Fair CLR 46.4 17.6 32% 41 29.99 0.0
02 16:15 W 13 10.00 Fair CLR 46.4 17.6 32% 41 29.99 0.0
02 15:55 W 15 10.00 Fair CLR 46.4 17.6 32% 41 30 0.0
02 15:35 W 14 10.00 Fair CLR 46.4 17.6 32% 41 30.01 0.0
02 15:15 W 14 10.00 Fair CLR 44.6 17.6 34% 39 30.02 0.0
02 14:55 W 13 10.00 Fair CLR 44.6 17.6 34% 39 30.02 0.0
02 14:35 W 15 10.00 Fair CLR 44.6 19.4 37% 38 30.03 0.0
02 14:15 W 15 10.00 Fair CLR 44.6 19.4 37% 38 30.03 0.0
02 13:55 W 15 10.00 Fair CLR 44.6 19.4 45.3 34.7 37% 38 30.04 0.0
02 13:35 W 15 10.00 Fair CLR 44.6 21.2 39% 38 30.04 0.0
02 13:15 W 16 10.00 Fair CLR 42.8 23 46% 36 30.04 0.0
02 12:55 W 15 10.00 Fair CLR 44.6 26.6 49% 38 30.04 0.0
02 12:35 W 15 10.00 Fair CLR 42.8 26.6 53% 36 30.04 0.0
02 12:15 W 13 10.00 Fair CLR 42.8 28.4 57% 37 30.05 0.0
02 11:55 W 13 10.00 Fair CLR 42.8 28.4 57% 37 30.05 0.0
02 11:35 W 14 10.00 Fair CLR 42.8 28.4 57% 36 30.05 0.0
02 11:15 W 13 10.00 Fair CLR 41 24.8 53% 34 30.05 0.0
02 10:55 W 14 10.00 Fair CLR 41 24.8 53% 34 30.05 0.0
02 10:35 W 13 10.00 Fair CLR 41 24.8 53% 34 30.05 0.0
02 10:15 W 13 10.00 Fair CLR 41 24.8 53% 34 30.06 0.0
02 09:55 W 12 10.00 Fair CLR 41 24.8 53% 35 30.06 0.0
02 09:35 W 10 10.00 Fair CLR 39.2 26.6 61% 33 30.06 0.0
02 09:15 W 12 10.00 Fair CLR 39.2 26.6 61% 33 30.06 0.0
02 08:55 W 12 10.00 Fair CLR 39.2 26.6 61% 33 30.06 0.0
02 08:35 W 12 10.00 Fair CLR 37.4 26.6 65% 30 30.06 0.0
02 08:15 W 10 10.00 Fair CLR 35.6 28.4 75% 29 30.06 0.0
02 07:55 W 9 10.00 Fair CLR 35.6 28.4 34.7 26.4 75% 29 30.06 0.0
02 07:35 W 9 10.00 Fair CLR 33.8 28.4 81% 27 30.06 0.0
02 07:15 W 6 10.00 Fair CLR 30.2 26.6 86% 25 30.06 0.0
02 06:55 W 6 10.00 Fair CLR 28.4 26.6 93% 23 30.06 0.0
02 06:35 SW 6 10.00 Fair CLR 28.4 26.6 93% 23 30.06 0.0
02 06:15 W 6 10.00 Fair CLR 28.4 24.8 86% 23 30.05 0.0
02 05:55 W 6 10.00 Fair CLR 28.4 26.6 93% 23 30.05 0.0
02 05:35 SW 6 10.00 Fair CLR 28.4 26.6 93% 23 30.05 0.0
02 05:15 SW 5 10.00 Fair CLR 26.6 24.8 93% 22 30.05 0.0
02 04:55 W 3 10.00 Fair CLR 26.6 26.6 100% 30.05 0.0
02 04:35 SW 3 10.00 Fair CLR 28.4 26.6 93% 30.05 0.0
02 04:15 SW 5 10.00 Fair CLR 30.2 26.6 86% 26 30.04 0.0
02 03:55 SW 5 10.00 Fair CLR 28.4 26.6 93% 24 30.05 0.0
02 03:35 W 5 10.00 Fair CLR 28.4 26.6 93% 24 30.04 0.0
02 03:15 SW 5 10.00 Fair CLR 28.4 26.6 93% 24 30.04 0.0
02 02:55 W 3 10.00 Fair CLR 30.2 26.6 86% 30.05 0.0
02 02:35 W 3 10.00 Fair CLR 30.2 26.6 86% 30.05 0.0
02 02:15 NW 3 10.00 Fair CLR 30.2 28.4 93% 30.05 0.0
02 01:55 SW 2 10.00 Fair CLR 30.2 28.4 36.7 30.2 93% 30.05 0.0
02 01:35 NW 2 10.00 Fair CLR 33.8 28.4 81% 30.05 0.0
02 01:15 N 3 10.00 Fair CLR 33.8 28.4 81% 30.05 0.0
02 00:55 NW 3 10.00 A Few Clouds FEW045 33.8 28.4 81% 30.05 0.0
02 00:35 NW 6 10.00 Fair CLR 33.8 30.2 87% 29 30.04 0.0
02 00:15 W 6 10.00 Fair CLR 33.8 28.4 81% 29 30.04 0.0
01 23:55 W 6 10.00 Fair CLR 33.8 28.4 81% 29 30.05 0.0
01 23:35 NW 8 10.00 Fair CLR 33.8 30.2 87% 28 30.05 0.0
01 23:15 W 8 10.00 Fair CLR 33.8 30.2 87% 28 30.05 0.0
01 22:55 NW 9 10.00 Fair CLR 35.6 30.2 81% 29 30.05 0.0
01 22:35 W 8 10.00 A Few Clouds FEW050 35.6 28.4 75% 30 30.05 0.0
01 22:15 W 9 10.00 Mostly Cloudy BKN050 35.6 32 87% 29 30.05 0.0
01 21:55 W 7 10.00 Overcast BKN050 OVC070 35.6 32 87% 31 30.05 0.0
01 21:35 W 9 10.00 Overcast FEW050 OVC070 35.6 32 87% 29 30.05 0.0
01 21:15 W 10 10.00 Overcast FEW050 OVC070 35.6 30.2 81% 29 30.04 0.0
01 20:55 W 9 10.00 Overcast SCT050 OVC070 35.6 32 87% 29 30.04 0.0
01 20:35 W 12 10.00 Overcast OVC070 35.6 32 87% 28 30.04 0.0
01 20:15 W 12 10.00 Overcast OVC070 35.6 32 87% 28 30.03 0.0
01 19:55 W 10 10.00 Overcast OVC080 37.4 32 40.5 36.5 81% 31 30.03 0.0
01 19:35 W 13 10.00 Overcast SCT070 OVC085 37.4 30.2 75% 30 30.03 0.0
01 19:15 W 9 10.00 Overcast BKN070 OVC085 37.4 30.2 75% 31 30.03 0.0
01 18:55 W 12 10.00 Overcast BKN060 OVC085 37.4 28.4 70% 30 30.02 0.0
01 18:35 W 12 10.00 Overcast OVC060 37.4 30.2 75% 30 30.03 0.0
01 18:15 W 9 10.00 Overcast OVC060 37.4 30.2 75% 31 30.03 0.0
01 17:55 W 10 10.00 Overcast FEW048 OVC070 37.4 30.2 75% 31 30.02 0.0
01 17:35 W 12 10.00 Overcast BKN070 OVC080 37.4 32 81% 30 30.02 0.0
01 17:15 W 13 10.00 Overcast OVC060 37.4 32 81% 30 30.02 0.0
01 16:55 W 13 10.00 Overcast OVC065 37.4 32 81% 30 30.01 0.0
01 16:35 NW 10 10.00 Overcast FEW050 OVC065 39.2 32 75% 33 30.01 0.0
01 16:15 W 13 10.00 Overcast SCT039 BKN050 OVC070 39.2 30.2 70% 32 30.01 0.0
01 15:55 W 15 10.00 Overcast SCT012 OVC070 39.2 32 75% 31 30.01 0.0
01 15:35 W 14 10.00 Overcast OVC080 39.2 32 75% 32 30.01 0.0
01 15:15 NW 14 10.00 Overcast FEW014 OVC080 39.2 32 75% 32 30.01 0.0
01 14:55 W 10 10.00 Overcast SCT012 OVC080 39.2 32 75% 33 30.01 0.0
01 14:35 W 9 10.00 Overcast BKN012 OVC080 39.2 32 75% 34 30.01 0.0
01 14:15 W 9 10.00 Overcast BKN014 OVC080 39.2 32 75% 34 30 0.0
01 13:55 NW 12 10.00 Overcast FEW010 BKN014 OVC080 39.2 32 40.6 34.3 75% 33 30 0.0
01 13:35 W 13 10.00 Overcast OVC080 41 32 70% 34 30 0.0
01 13:15 NW 8 10.00 Overcast OVC080 39.2 32 75% 34 30 0.0
01 12:55 NW 9 10.00 Overcast OVC080 39.2 32 75% 34 30 0.0
01 12:35 NW 9 10.00 Overcast OVC080 39.2 32 75% 34 30 0.0
Date Time (edt) Wind (mph) Vis. (mi.) Weather Sky Cond. Air Dwpt Max. Min. Relative Humidity Wind Chill (°F) Heat Index (°F) altimeter (in) sea level (mb) 1 hr 3 hr 6 hr
6 hour
Temperature (ºF) Pressure Precipitation (in)